Hlavní strana
METAR-TAF:

METAR-TAF

Letiště :

Mezinárodní letiště Oděsa

Oděsa, Ukrajina

zeměpisná šířka: 46-26N, zeměpisná délka: 030-46E, výška: 42 m

Aktuální stav počasí

Zpráva byla vytvořena před 15 minutami, v 11:30 UTC
Západojihozápadní vítr 14 kt
Teplota 6°C
Vlhkost vzduchu 49%
Tlak 1026 hPa
Viditelnost 10 km a více
Žádná oblačnost pod 1500 m, nevyskytují se cumulonimby.

METAR: UKOO 241130Z 25007MPS CAVOK 06/M04 Q1026 R16/090060 NOSIG

Čas: 13:45 (11:45 UTC)

Předpověď počasí

Zpráva byla vytvořena před 20 minutami, v 11:25 UTC
Předpověď platná od 24 v 12 UTC do 25 v 12 UTC
Západojihozápadní vítr 16 kt s nárazy do 27 kt
Viditelnost: 6000 m
Oblačno až skoro zataženo ve výšce 1000 ft
Polojasno ve výšce 1500 ft, Cumulonimbus.
Dočasný
od 24 v 16 UTC do 25 v 03 UTC
Viditelnost: 2100 m
kouřmo
Změna
od 25 v 03 UTC do 25 v 04 UTC
Západoseverozápadní vítr 6 kt

TAF: UKOO 241125Z 2412/2512 25008G14MPS 6000 BKN010 SCT015CB TX07/2413Z TNM03/2504Z TEMPO 2416/2503 2100 BR BECMG 2503/2504 30003MPS

Stav a předpovědi počasí z více než 4 000 letišť (zprávy METAR a TAF).

Červené a žluté tečky na mapě představují dostupné meteorologické stanice.

Když kurzor umístíte na tečku, zobrazí se název stanice.

Pak kliknutím zobrazíte stav a předpověď počasí.

Chcete-li změnit mapu, kliknutím na zelené tlačítko se znaménkem +mapu přiblížíte, kliknutím na zelené tlačítko se znaménkem – mapu oddálíte a kliknutím na zelené šipky přejdete na sousední mapy.


METAR-TAF: